createdAt,value
2017-07-10T00:00:08.412Z,938.45
2017-07-10T00:00:36.413Z,938.44
2017-07-10T00:01:04.348Z,938.44
2017-07-10T00:01:32.320Z,938.43
2017-07-10T00:02:00.522Z,938.43
2017-07-10T00:02:28.667Z,938.43
2017-07-10T00:02:56.626Z,938.44
2017-07-10T00:03:24.744Z,938.46
2017-07-10T00:03:52.852Z,938.42
2017-07-10T00:04:21.067Z,938.47
2017-07-10T00:04:49.304Z,938.47
2017-07-10T00:05:17.426Z,938.47
2017-07-10T00:05:45.628Z,938.46
2017-07-10T00:06:13.741Z,938.47
2017-07-10T00:06:41.953Z,938.51
2017-07-10T00:07:10.222Z,938.51
2017-07-10T00:07:38.391Z,938.47
2017-07-10T00:08:06.371Z,938.5
2017-07-10T00:08:34.485Z,938.56
2017-07-10T00:09:02.596Z,938.49
2017-07-10T00:09:30.804Z,938.51
2017-07-10T00:09:58.923Z,938.52
2017-07-10T00:10:26.884Z,938.51
2017-07-10T00:10:54.833Z,938.51
2017-07-10T00:11:23.015Z,938.5
2017-07-10T00:11:51.114Z,938.5
2017-07-10T00:12:19.232Z,938.48
2017-07-10T00:12:47.370Z,938.53
2017-07-10T00:13:15.477Z,938.51
2017-07-10T00:13:43.703Z,938.52
2017-07-10T00:14:11.724Z,938.51
2017-07-10T00:14:39.852Z,938.52
2017-07-10T00:15:07.990Z,938.52
2017-07-10T00:15:36.090Z,938.51
2017-07-10T00:16:04.300Z,938.53
2017-07-10T00:16:32.419Z,938.53
2017-07-10T00:17:00.502Z,938.54
2017-07-10T00:17:28.824Z,938.54
2017-07-10T00:17:57.038Z,938.56
2017-07-10T00:18:25.143Z,938.51
2017-07-10T00:18:53.338Z,938.54
2017-07-10T00:19:21.387Z,938.56
2017-07-10T00:19:49.593Z,938.52
2017-07-10T00:20:17.626Z,938.56
2017-07-10T00:20:45.824Z,938.53
2017-07-10T00:21:13.896Z,938.55
2017-07-10T00:21:42.051Z,938.53
2017-07-10T00:22:10.307Z,938.51
2017-07-10T00:22:38.619Z,938.54
2017-07-10T00:23:06.874Z,938.52
2017-07-10T00:23:34.916Z,938.56
2017-07-10T00:24:02.934Z,938.52
2017-07-10T00:24:31.086Z,938.52
2017-07-10T00:24:59.181Z,938.53
2017-07-10T00:25:27.417Z,938.52
2017-07-10T00:25:55.620Z,938.53
2017-07-10T00:26:23.657Z,938.52
2017-07-10T00:26:51.652Z,938.53
2017-07-10T00:27:19.743Z,938.54
2017-07-10T00:27:48.111Z,938.53
2017-07-10T00:28:16.322Z,938.54
2017-07-10T00:28:44.322Z,938.54
2017-07-10T00:29:12.548Z,938.56
2017-07-10T00:29:40.562Z,938.53
2017-07-10T00:30:08.545Z,938.54
2017-07-10T00:30:36.637Z,938.55
2017-07-10T00:31:04.905Z,938.56
2017-07-10T00:31:33.114Z,938.56
2017-07-10T00:32:01.206Z,938.6
2017-07-10T00:32:29.526Z,938.58
2017-07-10T00:32:57.637Z,938.59
2017-07-10T00:33:25.669Z,938.57
2017-07-10T00:33:53.599Z,938.58
2017-07-10T00:34:21.610Z,938.6
2017-07-10T00:34:49.734Z,938.57
2017-07-10T00:35:17.941Z,938.59
2017-07-10T00:35:45.984Z,938.6
2017-07-10T00:36:14.076Z,938.6
2017-07-10T00:36:42.227Z,938.57
2017-07-10T00:37:10.334Z,938.59
2017-07-10T00:37:38.550Z,938.6
2017-07-10T00:38:06.538Z,938.65
2017-07-10T00:38:34.634Z,938.61
2017-07-10T00:39:02.627Z,938.59
2017-07-10T00:39:30.871Z,938.61
2017-07-10T00:39:58.905Z,938.62
2017-07-10T00:40:27.009Z,938.62
2017-07-10T00:40:55.154Z,938.6
2017-07-10T00:41:23.249Z,938.61
2017-07-10T00:41:51.372Z,938.62
2017-07-10T00:42:19.469Z,938.64
2017-07-10T00:42:47.599Z,938.64
2017-07-10T00:43:15.696Z,938.64
2017-07-10T00:43:43.791Z,938.61
2017-07-10T00:44:11.908Z,938.64
2017-07-10T00:44:39.852Z,938.64
2017-07-10T00:45:08.017Z,938.66
2017-07-10T00:45:36.219Z,938.67
2017-07-10T00:46:04.293Z,938.67
2017-07-10T00:46:32.385Z,938.67
2017-07-10T00:47:00.529Z,938.7
2017-07-10T00:47:28.603Z,938.68
2017-07-10T00:47:56.977Z,938.67
2017-07-10T00:48:25.183Z,938.68
2017-07-10T00:48:53.330Z,938.69
2017-07-10T00:49:21.525Z,938.69
2017-07-10T00:49:49.708Z,938.68
2017-07-10T00:50:17.824Z,938.71
2017-07-10T00:50:46.013Z,938.67
2017-07-10T00:51:14.052Z,938.7
2017-07-10T00:51:42.264Z,938.74
2017-07-10T00:52:10.469Z,938.7
2017-07-10T00:52:38.714Z,938.77
2017-07-10T00:53:06.900Z,938.74
2017-07-10T00:53:35.006Z,938.76
2017-07-10T00:54:03.243Z,938.73
2017-07-10T00:54:31.368Z,938.74
2017-07-10T00:54:59.478Z,938.74
2017-07-10T00:55:27.718Z,938.73
2017-07-10T00:55:55.943Z,938.7
2017-07-10T00:56:23.959Z,938.69
2017-07-10T00:56:52.165Z,938.68
2017-07-10T00:57:20.253Z,938.69
2017-07-10T00:57:48.514Z,938.65
2017-07-10T00:58:16.708Z,938.69
2017-07-10T00:58:44.785Z,938.68
2017-07-10T00:59:12.956Z,938.67
2017-07-10T00:59:41.172Z,938.66
2017-07-10T01:00:09.283Z,938.68
2017-07-10T01:00:37.368Z,938.64
2017-07-10T01:01:05.556Z,938.64
2017-07-10T01:01:33.583Z,938.64
2017-07-10T01:02:01.650Z,938.64
2017-07-10T01:02:29.687Z,938.63
2017-07-10T01:02:58.026Z,938.63
2017-07-10T01:03:26.235Z,938.63
2017-07-10T01:03:54.478Z,938.65
2017-07-10T01:04:22.564Z,938.64
2017-07-10T01:04:50.589Z,938.64
2017-07-10T01:05:18.714Z,938.67
2017-07-10T01:05:46.838Z,938.67
2017-07-10T01:06:14.992Z,938.71
2017-07-10T01:06:43.182Z,938.68
2017-07-10T01:07:11.314Z,938.66
2017-07-10T01:07:39.349Z,938.66
2017-07-10T01:08:07.717Z,938.71
2017-07-10T01:08:35.833Z,938.67
2017-07-10T01:09:03.960Z,938.66
2017-07-10T01:09:32.042Z,938.67
2017-07-10T01:10:00.163Z,938.64
2017-07-10T01:10:28.193Z,938.66
2017-07-10T01:10:56.222Z,938.69
2017-07-10T01:11:24.185Z,938.68
2017-07-10T01:11:52.313Z,938.68
2017-07-10T01:12:20.489Z,938.65
2017-07-10T01:12:48.664Z,938.68
2017-07-10T01:13:16.723Z,938.66
2017-07-10T01:13:44.981Z,938.65
2017-07-10T01:14:13.161Z,938.66
2017-07-10T01:14:41.258Z,938.67
2017-07-10T01:15:09.473Z,938.66
2017-07-10T01:15:37.377Z,938.65
2017-07-10T01:16:05.480Z,938.64
2017-07-10T01:16:33.683Z,938.67
2017-07-10T01:17:01.742Z,938.63
2017-07-10T01:17:29.785Z,938.64
2017-07-10T01:17:57.787Z,938.65
2017-07-10T01:18:26.254Z,938.61
2017-07-10T01:18:54.363Z,938.64
2017-07-10T01:19:22.376Z,938.63
2017-07-10T01:19:50.472Z,938.6
2017-07-10T01:20:18.651Z,938.64
2017-07-10T01:20:46.630Z,938.6
2017-07-10T01:21:14.765Z,938.57
2017-07-10T01:21:42.846Z,938.6
2017-07-10T01:22:10.975Z,938.58
2017-07-10T01:22:39.112Z,938.63
2017-07-10T01:23:07.327Z,938.61
2017-07-10T01:23:35.433Z,938.6
2017-07-10T01:24:03.512Z,938.6
2017-07-10T01:24:31.705Z,938.56
2017-07-10T01:24:59.813Z,938.58
2017-07-10T01:25:28.056Z,938.61
2017-07-10T01:25:55.943Z,938.59
2017-07-10T01:26:24.027Z,938.55
2017-07-10T01:26:52.119Z,938.51
2017-07-10T01:27:20.354Z,938.54
2017-07-10T01:27:48.532Z,938.52
2017-07-10T01:28:16.802Z,938.55
2017-07-10T01:28:44.973Z,938.54
2017-07-10T01:29:13.161Z,938.51
2017-07-10T01:29:41.382Z,938.51
2017-07-10T01:30:09.357Z,938.52
2017-07-10T01:30:37.536Z,938.54
2017-07-10T01:31:05.656Z,938.49
2017-07-10T01:31:33.754Z,938.53
2017-07-10T01:32:01.847Z,938.52
2017-07-10T01:32:29.954Z,938.47
2017-07-10T01:32:58.064Z,938.47
2017-07-10T01:33:26.284Z,938.47
2017-07-10T01:33:54.526Z,938.48
2017-07-10T01:34:22.672Z,938.44
2017-07-10T01:34:50.891Z,938.46
2017-07-10T01:35:19.011Z,938.43
2017-07-10T01:35:47.251Z,938.42
2017-07-10T01:36:15.381Z,938.43
2017-07-10T01:36:43.439Z,938.47
2017-07-10T01:37:11.524Z,938.44
2017-07-10T01:37:39.740Z,938.45
2017-07-10T01:38:07.857Z,938.46
2017-07-10T01:38:36.121Z,938.4
2017-07-10T01:39:04.207Z,938.44
2017-07-10T01:39:32.364Z,938.4
2017-07-10T01:40:00.564Z,938.4
2017-07-10T01:40:28.802Z,938.42
2017-07-10T01:40:56.974Z,938.41
2017-07-10T01:41:25.074Z,938.45
2017-07-10T01:41:53.315Z,938.44
2017-07-10T01:42:21.436Z,938.42
2017-07-10T01:42:49.683Z,938.44
2017-07-10T01:43:17.785Z,938.45
2017-07-10T01:43:46.083Z,938.43
2017-07-10T01:44:14.125Z,938.47
2017-07-10T01:44:42.123Z,938.46
2017-07-10T01:45:10.362Z,938.46
2017-07-10T01:45:38.500Z,938.48
2017-07-10T01:46:06.610Z,938.48
2017-07-10T01:46:34.760Z,938.5
2017-07-10T01:47:02.954Z,938.48
2017-07-10T01:47:30.973Z,938.51
2017-07-10T01:47:59.190Z,938.5
2017-07-10T01:48:27.426Z,938.48
2017-07-10T01:48:55.510Z,938.5
2017-07-10T01:49:23.554Z,938.51
2017-07-10T01:49:51.590Z,938.5
2017-07-10T01:50:19.799Z,938.52
2017-07-10T01:50:47.990Z,938.51
2017-07-10T01:51:16.217Z,938.53
2017-07-10T01:51:44.438Z,938.56
2017-07-10T01:52:12.344Z,938.57
2017-07-10T01:52:40.458Z,938.58
2017-07-10T01:53:08.709Z,938.57
2017-07-10T01:53:37.086Z,938.58
2017-07-10T01:54:05.337Z,938.57
2017-07-10T01:54:33.583Z,938.56
2017-07-10T01:55:01.843Z,938.56
2017-07-10T01:55:29.933Z,938.54
2017-07-10T01:55:57.973Z,938.56
2017-07-10T01:56:25.978Z,938.54
2017-07-10T01:56:54.202Z,938.54
2017-07-10T01:57:22.223Z,938.57
2017-07-10T01:57:50.303Z,938.54
2017-07-10T01:58:18.333Z,938.58
2017-07-10T01:58:46.593Z,938.55
2017-07-10T01:59:14.847Z,938.54
2017-07-10T01:59:42.995Z,938.55
2017-07-10T02:00:11.121Z,938.54
2017-07-10T02:00:39.237Z,938.57
2017-07-10T02:01:07.306Z,938.53
2017-07-10T02:01:35.309Z,938.52
2017-07-10T02:02:03.517Z,938.51
2017-07-10T02:02:31.671Z,938.54
2017-07-10T02:02:59.800Z,938.54
2017-07-10T02:03:27.724Z,938.54
2017-07-10T02:03:56.070Z,938.53
2017-07-10T02:04:24.066Z,938.57
2017-07-10T02:04:52.273Z,938.56
2017-07-10T02:05:20.444Z,938.56
2017-07-10T02:05:48.657Z,938.54
2017-07-10T02:06:16.870Z,938.56
2017-07-10T02:06:44.996Z,938.57
2017-07-10T02:07:13.068Z,938.52
2017-07-10T02:07:41.292Z,938.53
2017-07-10T02:08:09.392Z,938.54
2017-07-10T02:08:37.518Z,938.53
2017-07-10T02:09:05.521Z,938.54
2017-07-10T02:09:33.492Z,938.53
2017-07-10T02:10:01.626Z,938.49
2017-07-10T02:10:29.705Z,938.51
2017-07-10T02:10:57.720Z,938.51
2017-07-10T02:11:25.807Z,938.51
2017-07-10T02:11:53.915Z,938.53
2017-07-10T02:12:22.042Z,938.52
2017-07-10T02:12:50.106Z,938.54
2017-07-10T02:13:18.233Z,938.49
2017-07-10T02:13:46.578Z,938.54
2017-07-10T02:14:14.807Z,938.49
2017-07-10T02:14:42.880Z,938.54
2017-07-10T02:15:11.068Z,938.54
2017-07-10T02:15:38.983Z,938.52
2017-07-10T02:16:07.121Z,938.54
2017-07-10T02:16:35.208Z,938.5
2017-07-10T02:17:03.309Z,938.5
2017-07-10T02:17:31.530Z,938.53
2017-07-10T02:17:59.786Z,938.55
2017-07-10T02:18:27.933Z,938.52
2017-07-10T02:18:56.160Z,938.53
2017-07-10T02:19:24.169Z,938.55
2017-07-10T02:19:52.298Z,938.52
2017-07-10T02:20:20.411Z,938.53
2017-07-10T02:20:48.548Z,938.54
2017-07-10T02:21:16.691Z,938.56
2017-07-10T02:21:44.835Z,938.54
2017-07-10T02:22:13.039Z,938.58
2017-07-10T02:22:41.134Z,938.58
2017-07-10T02:23:09.241Z,938.57
2017-07-10T02:23:37.485Z,938.58
2017-07-10T02:24:05.729Z,938.6
2017-07-10T02:24:33.977Z,938.58
2017-07-10T02:25:01.862Z,938.6
2017-07-10T02:25:29.999Z,938.62
2017-07-10T02:25:58.101Z,938.63
2017-07-10T02:26:26.299Z,938.6
2017-07-10T02:26:54.433Z,938.6
2017-07-10T02:27:22.471Z,938.64
2017-07-10T02:27:50.685Z,938.64
2017-07-10T02:28:18.868Z,938.65
2017-07-10T02:28:46.847Z,938.63
2017-07-10T02:29:14.973Z,938.64
2017-07-10T02:29:43.128Z,938.63
2017-07-10T02:30:11.249Z,938.66
2017-07-10T02:30:39.228Z,938.66
2017-07-10T02:31:07.243Z,938.66
2017-07-10T02:31:35.373Z,938.63
2017-07-10T02:32:03.571Z,938.66
2017-07-10T02:32:31.604Z,938.68
2017-07-10T02:32:59.598Z,938.63
2017-07-10T02:33:27.801Z,938.67
2017-07-10T02:33:55.819Z,938.65
2017-07-10T02:34:23.891Z,938.65
2017-07-10T02:34:52.032Z,938.66
2017-07-10T02:35:20.136Z,938.65
2017-07-10T02:35:48.361Z,938.63
2017-07-10T02:36:16.491Z,938.63
2017-07-10T02:36:44.708Z,938.62
2017-07-10T02:37:12.775Z,938.63
2017-07-10T02:37:40.990Z,938.62
2017-07-10T02:38:08.995Z,938.6
2017-07-10T02:38:37.089Z,938.62
2017-07-10T02:39:05.170Z,938.6
2017-07-10T02:39:33.400Z,938.61
2017-07-10T02:40:01.568Z,938.62
2017-07-10T02:40:29.604Z,938.61
2017-07-10T02:40:57.830Z,938.63
2017-07-10T02:41:25.961Z,938.62
2017-07-10T02:41:54.154Z,938.63
2017-07-10T02:42:22.351Z,938.62
2017-07-10T02:42:50.336Z,938.64
2017-07-10T02:43:18.554Z,938.6
2017-07-10T02:43:46.609Z,938.6
2017-07-10T02:44:14.631Z,938.58
2017-07-10T02:44:42.831Z,938.6
2017-07-10T02:45:10.956Z,938.59
2017-07-10T02:45:39.181Z,938.59
2017-07-10T02:46:07.283Z,938.57
2017-07-10T02:46:35.467Z,938.58
2017-07-10T02:47:03.537Z,938.57
2017-07-10T02:47:31.733Z,938.59
2017-07-10T02:47:59.968Z,938.58
2017-07-10T02:48:28.000Z,938.61
2017-07-10T02:48:56.071Z,938.58
2017-07-10T02:49:24.259Z,938.61
2017-07-10T02:49:52.389Z,938.6
2017-07-10T02:50:20.373Z,938.6
2017-07-10T02:50:48.475Z,938.59
2017-07-10T02:51:16.686Z,938.57
2017-07-10T02:51:44.774Z,938.61
2017-07-10T02:52:12.795Z,938.62
2017-07-10T02:52:40.960Z,938.61
2017-07-10T02:53:09.180Z,938.6
2017-07-10T02:53:37.380Z,938.6
2017-07-10T02:54:05.502Z,938.57
2017-07-10T02:54:33.717Z,938.57
2017-07-10T02:55:01.565Z,938.62
2017-07-10T02:55:29.543Z,938.57
2017-07-10T02:55:57.551Z,938.57
2017-07-10T02:56:25.757Z,938.57
2017-07-10T02:56:53.823Z,938.6
2017-07-10T02:57:21.823Z,938.59
2017-07-10T02:57:49.859Z,938.6
2017-07-10T02:58:17.990Z,938.55
2017-07-10T02:58:46.010Z,938.56
2017-07-10T02:59:14.080Z,938.55
2017-07-10T02:59:42.414Z,938.58
2017-07-10T03:00:10.858Z,938.56
2017-07-10T03:00:39.066Z,938.56
2017-07-10T03:01:06.971Z,938.52
2017-07-10T03:01:35.160Z,938.59
2017-07-10T03:02:03.329Z,938.54
2017-07-10T03:02:31.226Z,938.53
2017-07-10T03:02:59.357Z,938.56
2017-07-10T03:03:27.596Z,938.55
2017-07-10T03:03:55.800Z,938.52
2017-07-10T03:04:24.102Z,938.55
2017-07-10T03:04:52.041Z,938.54
2017-07-10T03:05:20.081Z,938.53
2017-07-10T03:05:48.287Z,938.55
2017-07-10T03:06:16.388Z,938.56
2017-07-10T03:06:44.584Z,938.54
2017-07-10T03:07:12.660Z,938.53
2017-07-10T03:07:40.742Z,938.55
2017-07-10T03:08:08.839Z,938.54
2017-07-10T03:08:36.903Z,938.53
2017-07-10T03:09:05.003Z,938.5
2017-07-10T03:09:33.155Z,938.54
2017-07-10T03:10:01.366Z,938.53
2017-07-10T03:10:29.562Z,938.52
2017-07-10T03:10:57.558Z,938.53
2017-07-10T03:11:25.567Z,938.54
2017-07-10T03:11:53.591Z,938.54
2017-07-10T03:12:21.762Z,938.55
2017-07-10T03:12:49.979Z,938.51
2017-07-10T03:13:18.101Z,938.52
2017-07-10T03:13:46.299Z,938.54
2017-07-10T03:14:14.394Z,938.53
2017-07-10T03:14:42.602Z,938.54
2017-07-10T03:15:10.703Z,938.54
2017-07-10T03:15:38.957Z,938.55
2017-07-10T03:16:07.114Z,938.54
2017-07-10T03:16:35.324Z,938.55
2017-07-10T03:17:03.427Z,938.52
2017-07-10T03:17:31.564Z,938.54
2017-07-10T03:17:59.782Z,938.57
2017-07-10T03:18:27.801Z,938.55
2017-07-10T03:18:55.848Z,938.55
2017-07-10T03:19:23.889Z,938.55
2017-07-10T03:19:52.063Z,938.55
2017-07-10T03:20:20.108Z,938.56
2017-07-10T03:20:48.169Z,938.56
2017-07-10T03:21:16.057Z,938.56
2017-07-10T03:21:44.194Z,938.58
2017-07-10T03:22:12.318Z,938.59
2017-07-10T03:22:40.296Z,938.57
2017-07-10T03:23:08.255Z,938.56
2017-07-10T03:23:36.471Z,938.59
2017-07-10T03:24:04.447Z,938.57
2017-07-10T03:24:32.686Z,938.61
2017-07-10T03:25:01.047Z,938.59
2017-07-10T03:25:29.052Z,938.58
2017-07-10T03:25:57.267Z,938.59
2017-07-10T03:26:25.369Z,938.61
2017-07-10T03:26:53.571Z,938.6
2017-07-10T03:27:21.551Z,938.62
2017-07-10T03:27:49.566Z,938.58
2017-07-10T03:28:17.657Z,938.57
2017-07-10T03:28:45.843Z,938.6
2017-07-10T03:29:14.059Z,938.6
2017-07-10T03:29:42.398Z,938.58
2017-07-10T03:30:10.495Z,938.6
2017-07-10T03:30:38.539Z,938.6
2017-07-10T03:31:06.758Z,938.6
2017-07-10T03:31:34.891Z,938.58
2017-07-10T03:32:02.956Z,938.6
2017-07-10T03:32:31.137Z,938.6
2017-07-10T03:32:59.324Z,938.59
2017-07-10T03:33:27.432Z,938.57
2017-07-10T03:33:55.444Z,938.56
2017-07-10T03:34:23.690Z,938.55
2017-07-10T03:34:51.938Z,938.56
2017-07-10T03:35:20.080Z,938.55
2017-07-10T03:35:48.277Z,938.53
2017-07-10T03:36:16.186Z,938.5
2017-07-10T03:36:44.198Z,938.54
2017-07-10T03:37:12.399Z,938.51
2017-07-10T03:37:40.436Z,938.52
2017-07-10T03:38:08.504Z,938.48
2017-07-10T03:38:36.537Z,938.53
2017-07-10T03:39:04.633Z,938.49
2017-07-10T03:39:32.662Z,938.5
2017-07-10T03:40:00.893Z,938.53
2017-07-10T03:40:29.034Z,938.52
2017-07-10T03:40:57.127Z,938.49
2017-07-10T03:41:25.324Z,938.47
2017-07-10T03:41:53.425Z,938.46
2017-07-10T03:42:21.405Z,938.5
2017-07-10T03:42:49.496Z,938.49
2017-07-10T03:43:17.723Z,938.47
2017-07-10T03:43:45.862Z,938.45
2017-07-10T03:44:13.954Z,938.44
2017-07-10T03:44:42.123Z,938.47
2017-07-10T03:45:10.443Z,938.47
2017-07-10T03:45:38.578Z,938.44
2017-07-10T03:46:06.608Z,938.43
2017-07-10T03:46:34.829Z,938.46
2017-07-10T03:47:02.992Z,938.47
2017-07-10T03:47:31.057Z,938.46
2017-07-10T03:47:59.136Z,938.45
2017-07-10T03:48:27.360Z,938.48
2017-07-10T03:48:55.401Z,938.48
2017-07-10T03:49:23.505Z,938.45
2017-07-10T03:49:51.706Z,938.46
2017-07-10T03:50:19.654Z,938.48
2017-07-10T03:50:47.762Z,938.43
2017-07-10T03:51:15.998Z,938.42
2017-07-10T03:51:44.167Z,938.45
2017-07-10T03:52:12.070Z,938.44
2017-07-10T03:52:40.082Z,938.47
2017-07-10T03:53:08.090Z,938.48
2017-07-10T03:53:36.188Z,938.42
2017-07-10T03:54:04.372Z,938.49
2017-07-10T03:54:32.562Z,938.46
2017-07-10T03:55:00.714Z,938.47
2017-07-10T03:55:28.754Z,938.46
2017-07-10T03:55:56.826Z,938.45
2017-07-10T03:56:24.952Z,938.44
2017-07-10T03:56:53.105Z,938.49
2017-07-10T03:57:21.374Z,938.45
2017-07-10T03:57:49.328Z,938.45
2017-07-10T03:58:17.463Z,938.45
2017-07-10T03:58:45.696Z,938.44
2017-07-10T03:59:13.579Z,938.44
2017-07-10T03:59:41.506Z,938.46
2017-07-10T04:00:09.823Z,938.43
2017-07-10T04:00:37.884Z,938.44
2017-07-10T04:01:06.084Z,938.48
2017-07-10T04:01:34.099Z,938.46
2017-07-10T04:02:02.009Z,938.46
2017-07-10T04:02:29.889Z,938.49
2017-07-10T04:02:57.991Z,938.44
2017-07-10T04:03:26.113Z,938.46
2017-07-10T04:03:54.217Z,938.47
2017-07-10T04:04:22.200Z,938.46
2017-07-10T04:04:50.303Z,938.45
2017-07-10T04:05:18.585Z,938.46
2017-07-10T04:05:46.571Z,938.45
2017-07-10T04:06:14.789Z,938.46
2017-07-10T04:06:43.065Z,938.45
2017-07-10T04:07:11.222Z,938.47
2017-07-10T04:07:39.342Z,938.43
2017-07-10T04:08:07.329Z,938.49
2017-07-10T04:08:35.399Z,938.44
2017-07-10T04:09:03.311Z,938.44
2017-07-10T04:09:31.303Z,938.44
2017-07-10T04:09:59.510Z,938.44
2017-07-10T04:10:27.862Z,938.46
2017-07-10T04:10:55.961Z,938.41
2017-07-10T04:11:24.060Z,938.43
2017-07-10T04:11:52.188Z,938.41
2017-07-10T04:12:20.409Z,938.43
2017-07-10T04:12:48.413Z,938.4
2017-07-10T04:13:16.545Z,938.47
2017-07-10T04:13:44.376Z,938.44
2017-07-10T04:14:12.445Z,938.41
2017-07-10T04:14:40.678Z,938.45
2017-07-10T04:15:08.871Z,938.39
2017-07-10T04:15:37.000Z,938.43
2017-07-10T04:16:04.997Z,938.4
2017-07-10T04:16:33.084Z,938.38
2017-07-10T04:17:01.211Z,938.34
2017-07-10T04:17:29.422Z,938.35
2017-07-10T04:17:57.539Z,938.35
2017-07-10T04:18:25.619Z,938.34
2017-07-10T04:18:53.818Z,938.35
2017-07-10T04:19:21.987Z,938.33
2017-07-10T04:19:50.130Z,938.32
2017-07-10T04:20:18.355Z,938.35
2017-07-10T04:20:46.292Z,938.31
2017-07-10T04:21:14.501Z,938.31
2017-07-10T04:21:42.664Z,938.3
2017-07-10T04:22:10.799Z,938.3
2017-07-10T04:22:38.874Z,938.3
2017-07-10T04:23:07.098Z,938.3
2017-07-10T04:23:35.180Z,938.31
2017-07-10T04:24:03.278Z,938.29
2017-07-10T04:24:31.333Z,938.33
2017-07-10T04:24:59.214Z,938.31
2017-07-10T04:25:27.584Z,938.28
2017-07-10T04:25:55.774Z,938.26
2017-07-10T04:26:23.920Z,938.26
2017-07-10T04:26:52.040Z,938.24
2017-07-10T04:27:20.142Z,938.24
2017-07-10T04:27:48.365Z,938.26
2017-07-10T04:28:16.344Z,938.22
2017-07-10T04:28:44.217Z,938.19
2017-07-10T04:29:12.305Z,938.19
2017-07-10T04:29:40.408Z,938.18
2017-07-10T04:30:08.640Z,938.19
2017-07-10T04:30:36.968Z,938.18
2017-07-10T04:31:05.144Z,938.16
2017-07-10T04:31:33.249Z,938.17
2017-07-10T04:32:01.359Z,938.16
2017-07-10T04:32:29.469Z,938.15
2017-07-10T04:32:57.678Z,938.15
2017-07-10T04:33:25.807Z,938.19
2017-07-10T04:33:53.921Z,938.15
2017-07-10T04:34:22.096Z,938.16
2017-07-10T04:34:50.218Z,938.15
2017-07-10T04:35:18.231Z,938.16
2017-07-10T04:35:46.473Z,938.15
2017-07-10T04:36:14.491Z,938.15
2017-07-10T04:36:42.599Z,938.14
2017-07-10T04:37:10.820Z,938.12
2017-07-10T04:37:38.919Z,938.15
2017-07-10T04:38:07.065Z,938.13
2017-07-10T04:38:35.169Z,938.11
2017-07-10T04:39:03.279Z,938.12
2017-07-10T04:39:31.487Z,938.12
2017-07-10T04:39:59.749Z,938.14
2017-07-10T04:40:27.965Z,938.17
2017-07-10T04:40:56.343Z,938.13
2017-07-10T04:41:24.616Z,938.14
2017-07-10T04:41:52.653Z,938.11
2017-07-10T04:42:20.842Z,938.14
2017-07-10T04:42:48.959Z,938.12
2017-07-10T04:43:17.181Z,938.12
2017-07-10T04:43:45.071Z,938.09
2017-07-10T04:44:13.258Z,938.12
2017-07-10T04:44:41.453Z,938.1
2017-07-10T04:45:09.533Z,938.09
2017-07-10T04:45:37.741Z,938.11
2017-07-10T04:46:05.874Z,938.09
2017-07-10T04:46:34.086Z,938.05
2017-07-10T04:47:02.337Z,938.05
2017-07-10T04:47:30.424Z,938.07
2017-07-10T04:47:58.611Z,938.09
2017-07-10T04:48:26.689Z,938.06
2017-07-10T04:48:54.745Z,938.12
2017-07-10T04:49:22.869Z,938.06
2017-07-10T04:49:50.987Z,938.08
2017-07-10T04:50:19.181Z,938.14
2017-07-10T04:50:47.464Z,938.1
2017-07-10T04:51:15.602Z,938.08
2017-07-10T04:51:43.665Z,938.1
2017-07-10T04:52:11.801Z,938.08
2017-07-10T04:52:39.696Z,938.05
2017-07-10T04:53:07.944Z,938.05
2017-07-10T04:53:35.973Z,938.06
2017-07-10T04:54:03.913Z,938.03
2017-07-10T04:54:32.034Z,938.04
2017-07-10T04:55:00.176Z,938.06
2017-07-10T04:55:28.314Z,938.09
2017-07-10T04:55:56.540Z,938.09
2017-07-10T04:56:24.798Z,938.09
2017-07-10T04:56:52.818Z,938.08
2017-07-10T04:57:20.938Z,938.06
2017-07-10T04:57:49.018Z,938.09
2017-07-10T04:58:17.146Z,938.07
2017-07-10T04:58:45.305Z,938.14
2017-07-10T04:59:13.235Z,938.1
2017-07-10T04:59:41.346Z,938.12
2017-07-10T05:00:09.617Z,938.11
2017-07-10T05:00:37.832Z,938.14
2017-07-10T05:01:06.097Z,938.07
2017-07-10T05:01:34.185Z,938.11
2017-07-10T05:02:02.092Z,938.09
2017-07-10T05:02:30.288Z,938.12
2017-07-10T05:02:58.498Z,938.13
2017-07-10T05:03:26.708Z,938.11
2017-07-10T05:03:54.833Z,938.09
2017-07-10T05:04:23.018Z,938.08
2017-07-10T05:04:51.295Z,938.08
2017-07-10T05:05:19.445Z,938.11
2017-07-10T05:05:47.660Z,938.12
2017-07-10T05:06:15.902Z,938.12
2017-07-10T05:06:44.021Z,938.11
2017-07-10T05:07:12.164Z,938.1
2017-07-10T05:07:40.208Z,938.13
2017-07-10T05:08:08.127Z,938.13
2017-07-10T05:08:36.512Z,938.18
2017-07-10T05:09:05.381Z,938.1
2017-07-10T05:09:33.429Z,938.18
2017-07-10T05:10:01.587Z,938.17
2017-07-10T05:10:29.574Z,938.19
2017-07-10T05:10:57.374Z,938.16
2017-07-10T05:11:25.477Z,938.17
2017-07-10T05:11:53.762Z,938.16
2017-07-10T05:12:22.029Z,938.11
2017-07-10T05:12:49.957Z,938.11
2017-07-10T05:13:17.874Z,938.11
2017-07-10T05:13:46.094Z,938.09
2017-07-10T05:14:14.316Z,938.06
2017-07-10T05:14:42.501Z,938.11
2017-07-10T05:15:10.725Z,938.12
2017-07-10T05:15:38.922Z,938.09
2017-07-10T05:16:06.992Z,938.12
2017-07-10T05:16:35.073Z,938.1
2017-07-10T05:17:03.163Z,938.09
2017-07-10T05:17:31.187Z,938.06
2017-07-10T05:17:59.301Z,938.11
2017-07-10T05:18:27.515Z,938.08
2017-07-10T05:18:55.712Z,938.05
2017-07-10T05:19:23.784Z,938.05
2017-07-10T05:19:51.991Z,938.03
2017-07-10T05:20:20.097Z,938.04
2017-07-10T05:20:48.104Z,938.06
2017-07-10T05:21:16.332Z,938.04
2017-07-10T05:21:44.424Z,938.07
2017-07-10T05:22:12.438Z,938.02
2017-07-10T05:22:40.543Z,938.02
2017-07-10T05:23:08.665Z,938.03
2017-07-10T05:23:36.802Z,938.03
2017-07-10T05:24:04.838Z,938.02
2017-07-10T05:24:33.035Z,938.04
2017-07-10T05:25:01.239Z,938.05
2017-07-10T05:25:29.430Z,938.01
2017-07-10T05:25:57.534Z,938.05
2017-07-10T05:26:25.814Z,938.04
2017-07-10T05:26:54.000Z,938
2017-07-10T05:27:22.229Z,938.03
2017-07-10T05:27:50.395Z,937.99
2017-07-10T05:28:18.475Z,937.99
2017-07-10T05:28:46.655Z,938.01
2017-07-10T05:29:14.768Z,938
2017-07-10T05:29:42.987Z,938
2017-07-10T05:30:11.188Z,938.01
2017-07-10T05:30:39.215Z,937.99
2017-07-10T05:31:07.319Z,937.97
2017-07-10T05:31:35.469Z,937.98
2017-07-10T05:32:03.565Z,938.01
2017-07-10T05:32:31.794Z,937.99
2017-07-10T05:33:00.066Z,938.02
2017-07-10T05:33:28.107Z,937.99
2017-07-10T05:33:56.200Z,937.99
2017-07-10T05:34:24.321Z,937.99
2017-07-10T05:34:52.235Z,937.95
2017-07-10T05:35:20.368Z,937.97
2017-07-10T05:35:48.615Z,937.99
2017-07-10T05:36:16.801Z,937.94
2017-07-10T05:36:44.800Z,937.99
2017-07-10T05:37:12.850Z,937.93
2017-07-10T05:37:41.071Z,937.94
2017-07-10T05:38:09.167Z,937.97
2017-07-10T05:38:37.381Z,937.93
2017-07-10T05:39:05.523Z,937.93
2017-07-10T05:39:33.623Z,937.9
2017-07-10T05:40:01.665Z,937.93
2017-07-10T05:40:29.754Z,937.94
2017-07-10T05:40:57.929Z,937.9
2017-07-10T05:41:26.316Z,937.91
2017-07-10T05:41:54.552Z,937.92
2017-07-10T05:42:22.585Z,937.89
2017-07-10T05:42:50.667Z,937.92
2017-07-10T05:43:18.778Z,937.89
2017-07-10T05:43:46.987Z,937.9
2017-07-10T05:44:15.078Z,937.91
2017-07-10T05:44:43.214Z,937.86
2017-07-10T05:45:11.294Z,937.86
2017-07-10T05:45:39.335Z,937.88
2017-07-10T05:46:07.534Z,937.85
2017-07-10T05:46:35.831Z,937.87
2017-07-10T05:47:03.976Z,937.85
2017-07-10T05:47:32.236Z,937.87
2017-07-10T05:48:00.278Z,937.81
2017-07-10T05:48:28.352Z,937.83
2017-07-10T05:48:56.336Z,937.82
2017-07-10T05:49:24.524Z,937.84
2017-07-10T05:49:52.741Z,937.8
2017-07-10T05:50:20.771Z,937.82
2017-07-10T05:50:48.883Z,937.82
2017-07-10T05:51:17.045Z,937.75
2017-07-10T05:51:45.237Z,937.76
2017-07-10T05:52:13.416Z,937.77